Bloomington (BMI/KBMI)

Map

Information

Location
Bloomington, IL
Local Time
00:34 / 12:34 am
GMT Time
06:34 / 6:34 am
Gates
Unassigned
No FAA reported delays
METAR KBMI 220556Z AUTO 19006KT 5SM BR CLR 12/11 A2987 RMK AO2 SLP137 T01170106 10161 20117 401890117 56017
TAF KBMI 220534Z 2206/2306 20007KT 3SM BR BKN200 FM220800 22006KT 1/2SM FG OVC002 FM221500 21007KT P6SM FEW008 FM221900 21010KT P6SM FEW250
  • No charts available